sensor_id;sensor_type;location;lat;lon;timestamp;temperature;humidity
24326;DHT22;12448;45.532;5.290;2023-07-31T00:01:55;20.50;71.90
24326;DHT22;12448;45.532;5.290;2023-07-31T00:04:21;20.50;71.20
24326;DHT22;12448;45.532;5.290;2023-07-31T00:06:56;20.50;71.10
24326;DHT22;12448;45.532;5.290;2023-07-31T00:09:21;20.50;71.10
24326;DHT22;12448;45.532;5.290;2023-07-31T00:11:50;20.40;70.80
24326;DHT22;12448;45.532;5.290;2023-07-31T00:14:15;20.40;71.00
24326;DHT22;12448;45.532;5.290;2023-07-31T00:16:44;20.40;70.90
24326;DHT22;12448;45.532;5.290;2023-07-31T00:19:10;20.10;70.50
24326;DHT22;12448;45.532;5.290;2023-07-31T00:21:36;20.40;70.60
24326;DHT22;12448;45.532;5.290;2023-07-31T00:24:01;20.40;70.20
24326;DHT22;12448;45.532;5.290;2023-07-31T00:26:30;20.50;69.50
24326;DHT22;12448;45.532;5.290;2023-07-31T00:29:01;20.50;68.80
24326;DHT22;12448;45.532;5.290;2023-07-31T00:31:27;20.50;68.10
24326;DHT22;12448;45.532;5.290;2023-07-31T00:33:52;20.50;67.80
24326;DHT22;12448;45.532;5.290;2023-07-31T00:36:18;20.50;67.70
24326;DHT22;12448;45.532;5.290;2023-07-31T00:38:44;20.50;67.80
24326;DHT22;12448;45.532;5.290;2023-07-31T00:41:09;20.50;68.00
24326;DHT22;12448;45.532;5.290;2023-07-31T00:43:36;20.50;68.00
24326;DHT22;12448;45.532;5.290;2023-07-31T00:46:02;20.50;68.50
24326;DHT22;12448;45.532;5.290;2023-07-31T00:48:28;20.50;68.30
24326;DHT22;12448;45.532;5.290;2023-07-31T00:50:54;20.50;67.90
24326;DHT22;12448;45.532;5.290;2023-07-31T00:53:19;20.40;67.60
24326;DHT22;12448;45.532;5.290;2023-07-31T00:55:45;20.40;67.50
24326;DHT22;12448;45.532;5.290;2023-07-31T00:58:11;20.40;67.60
24326;DHT22;12448;45.532;5.290;2023-07-31T01:00:37;20.40;67.70
24326;DHT22;12448;45.532;5.290;2023-07-31T01:03:02;20.40;68.00
24326;DHT22;12448;45.532;5.290;2023-07-31T01:05:39;20.30;68.30
24326;DHT22;12448;45.532;5.290;2023-07-31T01:08:17;20.40;68.00
24326;DHT22;12448;45.532;5.290;2023-07-31T01:10:52;20.30;68.10
24326;DHT22;12448;45.532;5.290;2023-07-31T01:13:21;20.30;68.20
24326;DHT22;12448;45.532;5.290;2023-07-31T01:15:47;20.30;68.30
24326;DHT22;12448;45.532;5.290;2023-07-31T01:18:13;20.30;68.70
24326;DHT22;12448;45.532;5.290;2023-07-31T01:20:54;20.30;68.90
24326;DHT22;12448;45.532;5.290;2023-07-31T01:26:34;20.20;69.60
24326;DHT22;12448;45.532;5.290;2023-07-31T01:29:09;20.20;69.70
24326;DHT22;12448;45.532;5.290;2023-07-31T01:31:57;20.20;69.60
24326;DHT22;12448;45.532;5.290;2023-07-31T01:34:46;20.10;69.50
24326;DHT22;12448;45.532;5.290;2023-07-31T01:37:12;20.10;69.70
24326;DHT22;12448;45.532;5.290;2023-07-31T01:39:38;20.10;69.50
24326;DHT22;12448;45.532;5.290;2023-07-31T01:42:03;20.10;69.50
24326;DHT22;12448;45.532;5.290;2023-07-31T01:44:29;20.10;69.60
24326;DHT22;12448;45.532;5.290;2023-07-31T01:46:55;20.10;69.40
24326;DHT22;12448;45.532;5.290;2023-07-31T01:49:20;20.10;69.50
24326;DHT22;12448;45.532;5.290;2023-07-31T01:51:46;20.00;69.30
24326;DHT22;12448;45.532;5.290;2023-07-31T01:54:12;20.10;69.20
24326;DHT22;12448;45.532;5.290;2023-07-31T01:56:37;20.10;69.10
24326;DHT22;12448;45.532;5.290;2023-07-31T01:59:03;20.10;69.70
24326;DHT22;12448;45.532;5.290;2023-07-31T02:01:28;20.10;70.10
24326;DHT22;12448;45.532;5.290;2023-07-31T02:03:54;20.00;70.30
24326;DHT22;12448;45.532;5.290;2023-07-31T02:06:20;20.00;70.50
24326;DHT22;12448;45.532;5.290;2023-07-31T02:08:45;19.90;70.70
24326;DHT22;12448;45.532;5.290;2023-07-31T02:11:11;19.80;71.00
24326;DHT22;12448;45.532;5.290;2023-07-31T02:13:36;19.80;71.00
24326;DHT22;12448;45.532;5.290;2023-07-31T02:16:02;19.80;71.30
24326;DHT22;12448;45.532;5.290;2023-07-31T02:18:28;19.70;71.40
24326;DHT22;12448;45.532;5.290;2023-07-31T02:20:54;19.70;71.50
24326;DHT22;12448;45.532;5.290;2023-07-31T02:23:19;19.70;71.30
24326;DHT22;12448;45.532;5.290;2023-07-31T02:25:55;19.50;71.00
24326;DHT22;12448;45.532;5.290;2023-07-31T02:28:20;19.30;70.90
24326;DHT22;12448;45.532;5.290;2023-07-31T02:30:46;19.20;72.30
24326;DHT22;12448;45.532;5.290;2023-07-31T02:33:15;19.10;71.90
24326;DHT22;12448;45.532;5.290;2023-07-31T02:35:41;19.10;72.20
24326;DHT22;12448;45.532;5.290;2023-07-31T02:38:07;19.10;72.30
24326;DHT22;12448;45.532;5.290;2023-07-31T02:40:41;19.10;72.50
24326;DHT22;12448;45.532;5.290;2023-07-31T02:43:48;19.30;73.10
24326;DHT22;12448;45.532;5.290;2023-07-31T02:46:17;19.20;73.50
24326;DHT22;12448;45.532;5.290;2023-07-31T02:48:50;19.20;73.70
24326;DHT22;12448;45.532;5.290;2023-07-31T02:51:28;19.20;74.10
24326;DHT22;12448;45.532;5.290;2023-07-31T02:53:54;19.20;73.60
24326;DHT22;12448;45.532;5.290;2023-07-31T02:56:25;19.20;72.90
24326;DHT22;12448;45.532;5.290;2023-07-31T02:58:54;19.20;72.40
24326;DHT22;12448;45.532;5.290;2023-07-31T03:01:49;19.10;72.90
24326;DHT22;12448;45.532;5.290;2023-07-31T03:04:37;19.00;72.40
24326;DHT22;12448;45.532;5.290;2023-07-31T03:07:32;18.80;72.90
24326;DHT22;12448;45.532;5.290;2023-07-31T03:09:58;18.60;73.40
24326;DHT22;12448;45.532;5.290;2023-07-31T03:12:27;18.50;73.80
24326;DHT22;12448;45.532;5.290;2023-07-31T03:14:56;18.40;74.20
24326;DHT22;12448;45.532;5.290;2023-07-31T03:17:34;18.40;74.40
24326;DHT22;12448;45.532;5.290;2023-07-31T03:20:45;18.30;74.60
24326;DHT22;12448;45.532;5.290;2023-07-31T03:23:10;18.20;75.00
24326;DHT22;12448;45.532;5.290;2023-07-31T03:26:00;18.30;75.10
24326;DHT22;12448;45.532;5.290;2023-07-31T03:28:28;18.40;75.00
24326;DHT22;12448;45.532;5.290;2023-07-31T03:30:56;18.50;75.00
24326;DHT22;12448;45.532;5.290;2023-07-31T03:33:22;18.60;75.00
24326;DHT22;12448;45.532;5.290;2023-07-31T03:35:54;18.70;74.90
24326;DHT22;12448;45.532;5.290;2023-07-31T03:38:29;18.70;75.00
24326;DHT22;12448;45.532;5.290;2023-07-31T03:41:06;18.80;74.60
24326;DHT22;12448;45.532;5.290;2023-07-31T03:43:46;19.00;74.50
24326;DHT22;12448;45.532;5.290;2023-07-31T03:46:12;19.00;73.70
24326;DHT22;12448;45.532;5.290;2023-07-31T03:48:37;19.10;74.00
24326;DHT22;12448;45.532;5.290;2023-07-31T03:51:03;19.10;73.90
24326;DHT22;12448;45.532;5.290;2023-07-31T03:53:34;19.10;74.00
24326;DHT22;12448;45.532;5.290;2023-07-31T03:56:09;19.10;74.30
24326;DHT22;12448;45.532;5.290;2023-07-31T03:58:35;19.10;74.30
24326;DHT22;12448;45.532;5.290;2023-07-31T04:01:02;19.20;73.80
24326;DHT22;12448;45.532;5.290;2023-07-31T04:03:29;19.20;73.50
24326;DHT22;12448;45.532;5.290;2023-07-31T04:05:55;19.00;73.30
24326;DHT22;12448;45.532;5.290;2023-07-31T04:08:30;18.90;73.70
24326;DHT22;12448;45.532;5.290;2023-07-31T04:10:56;18.80;74.10
24326;DHT22;12448;45.532;5.290;2023-07-31T04:13:22;18.80;74.40
24326;DHT22;12448;45.532;5.290;2023-07-31T04:15:49;18.80;74.40
24326;DHT22;12448;45.532;5.290;2023-07-31T04:18:16;18.90;74.40
24326;DHT22;12448;45.532;5.290;2023-07-31T04:20:47;18.90;74.30
24326;DHT22;12448;45.532;5.290;2023-07-31T04:23:19;18.90;74.30
24326;DHT22;12448;45.532;5.290;2023-07-31T04:25:57;18.90;74.10
24326;DHT22;12448;45.532;5.290;2023-07-31T04:28:28;18.90;74.30
24326;DHT22;12448;45.532;5.290;2023-07-31T04:31:14;18.90;74.60
24326;DHT22;12448;45.532;5.290;2023-07-31T04:33:57;18.90;75.10
24326;DHT22;12448;45.532;5.290;2023-07-31T04:36:39;18.90;75.30
24326;DHT22;12448;45.532;5.290;2023-07-31T04:39:05;18.90;75.30
24326;DHT22;12448;45.532;5.290;2023-07-31T04:41:30;18.90;75.30
24326;DHT22;12448;45.532;5.290;2023-07-31T04:44:06;18.90;75.50
24326;DHT22;12448;45.532;5.290;2023-07-31T04:47:13;18.90;75.50
24326;DHT22;12448;45.532;5.290;2023-07-31T04:52:45;18.70;74.90
24326;DHT22;12448;45.532;5.290;2023-07-31T04:55:33;18.40;75.60
24326;DHT22;12448;45.532;5.290;2023-07-31T04:58:05;18.30;76.20
24326;DHT22;12448;45.532;5.290;2023-07-31T05:00:34;18.10;76.70
24326;DHT22;12448;45.532;5.290;2023-07-31T05:06:04;18.10;77.50
24326;DHT22;12448;45.532;5.290;2023-07-31T05:08:35;18.20;77.30
24326;DHT22;12448;45.532;5.290;2023-07-31T05:11:02;18.20;77.00
24326;DHT22;12448;45.532;5.290;2023-07-31T05:13:28;18.20;77.00
24326;DHT22;12448;45.532;5.290;2023-07-31T05:15:54;18.20;77.30
24326;DHT22;12448;45.532;5.290;2023-07-31T05:18:23;18.20;77.50
24326;DHT22;12448;45.532;5.290;2023-07-31T05:20:49;18.30;77.70
24326;DHT22;12448;45.532;5.290;2023-07-31T05:23:14;18.40;77.60
24326;DHT22;12448;45.532;5.290;2023-07-31T05:25:43;18.40;77.50
24326;DHT22;12448;45.532;5.290;2023-07-31T05:28:09;18.50;77.40
24326;DHT22;12448;45.532;5.290;2023-07-31T05:30:34;18.50;78.20
24326;DHT22;12448;45.532;5.290;2023-07-31T05:33:00;18.60;78.50
24326;DHT22;12448;45.532;5.290;2023-07-31T05:35:25;18.70;78.40
24326;DHT22;12448;45.532;5.290;2023-07-31T05:37:54;18.70;78.30
24326;DHT22;12448;45.532;5.290;2023-07-31T05:40:20;18.80;78.30
24326;DHT22;12448;45.532;5.290;2023-07-31T05:43:04;18.70;77.90
24326;DHT22;12448;45.532;5.290;2023-07-31T05:46:17;18.70;77.90
24326;DHT22;12448;45.532;5.290;2023-07-31T05:49:02;18.70;78.10
24326;DHT22;12448;45.532;5.290;2023-07-31T05:51:31;18.70;78.70
24326;DHT22;12448;45.532;5.290;2023-07-31T05:54:19;18.70;79.10
24326;DHT22;12448;45.532;5.290;2023-07-31T05:57:06;18.80;78.40
24326;DHT22;12448;45.532;5.290;2023-07-31T05:59:32;18.80;78.30
24326;DHT22;12448;45.532;5.290;2023-07-31T06:01:58;18.90;78.40
24326;DHT22;12448;45.532;5.290;2023-07-31T06:04:24;18.90;78.50
24326;DHT22;12448;45.532;5.290;2023-07-31T06:06:51;19.00;78.80
24326;DHT22;12448;45.532;5.290;2023-07-31T06:09:16;19.00;78.80
24326;DHT22;12448;45.532;5.290;2023-07-31T06:11:42;19.00;78.00
24326;DHT22;12448;45.532;5.290;2023-07-31T06:14:08;19.00;77.90
24326;DHT22;12448;45.532;5.290;2023-07-31T06:16:33;18.90;78.00
24326;DHT22;12448;45.532;5.290;2023-07-31T06:19:08;18.90;78.20
24326;DHT22;12448;45.532;5.290;2023-07-31T06:21:53;19.00;77.80
24326;DHT22;12448;45.532;5.290;2023-07-31T06:24:44;19.00;77.30
24326;DHT22;12448;45.532;5.290;2023-07-31T06:27:13;19.00;77.20
24326;DHT22;12448;45.532;5.290;2023-07-31T06:32:44;19.10;77.10
24326;DHT22;12448;45.532;5.290;2023-07-31T06:35:41;19.10;76.90
24326;DHT22;12448;45.532;5.290;2023-07-31T06:38:33;19.20;76.90
24326;DHT22;12448;45.532;5.290;2023-07-31T06:40:59;19.30;76.90
24326;DHT22;12448;45.532;5.290;2023-07-31T06:43:24;19.40;76.60
24326;DHT22;12448;45.532;5.290;2023-07-31T06:45:50;19.50;76.90
24326;DHT22;12448;45.532;5.290;2023-07-31T06:51:16;19.60;77.30
24326;DHT22;12448;45.532;5.290;2023-07-31T06:53:42;19.70;77.40
24326;DHT22;12448;45.532;5.290;2023-07-31T06:56:10;19.80;77.60
24326;DHT22;12448;45.532;5.290;2023-07-31T06:58:36;19.80;77.20
24326;DHT22;12448;45.532;5.290;2023-07-31T07:01:02;19.90;76.70
24326;DHT22;12448;45.532;5.290;2023-07-31T07:03:36;19.90;76.80
24326;DHT22;12448;45.532;5.290;2023-07-31T07:06:22;20.00;76.90
24326;DHT22;12448;45.532;5.290;2023-07-31T07:08:49;20.00;76.80
24326;DHT22;12448;45.532;5.290;2023-07-31T07:11:14;20.00;76.10
24326;DHT22;12448;45.532;5.290;2023-07-31T07:13:43;20.00;75.90
24326;DHT22;12448;45.532;5.290;2023-07-31T07:23:20;20.00;74.90
24326;DHT22;12448;45.532;5.290;2023-07-31T07:25:54;19.90;74.10
24326;DHT22;12448;45.532;5.290;2023-07-31T07:28:20;19.90;74.70
24326;DHT22;12448;45.532;5.290;2023-07-31T07:30:51;19.90;75.40
24326;DHT22;12448;45.532;5.290;2023-07-31T07:33:18;19.90;75.30
24326;DHT22;12448;45.532;5.290;2023-07-31T07:35:44;19.90;74.80
24326;DHT22;12448;45.532;5.290;2023-07-31T07:38:10;19.90;75.40
24326;DHT22;12448;45.532;5.290;2023-07-31T07:40:42;19.90;74.50
24326;DHT22;12448;45.532;5.290;2023-07-31T07:43:07;20.00;73.10
24326;DHT22;12448;45.532;5.290;2023-07-31T07:45:33;20.00;72.80
24326;DHT22;12448;45.532;5.290;2023-07-31T07:47:59;20.00;73.20
24326;DHT22;12448;45.532;5.290;2023-07-31T07:50:25;20.00;72.40
24326;DHT22;12448;45.532;5.290;2023-07-31T07:56:01;20.20;73.10
24326;DHT22;12448;45.532;5.290;2023-07-31T07:58:27;20.20;72.80
24326;DHT22;12448;45.532;5.290;2023-07-31T08:00:58;20.30;72.60
24326;DHT22;12448;45.532;5.290;2023-07-31T08:03:24;20.40;72.80
24326;DHT22;12448;45.532;5.290;2023-07-31T08:05:49;20.70;72.90
24326;DHT22;12448;45.532;5.290;2023-07-31T08:08:15;20.50;72.20
24326;DHT22;12448;45.532;5.290;2023-07-31T08:10:45;20.50;70.30
24326;DHT22;12448;45.532;5.290;2023-07-31T08:13:11;20.50;69.80
24326;DHT22;12448;45.532;5.290;2023-07-31T08:15:37;20.60;70.10
24326;DHT22;12448;45.532;5.290;2023-07-31T08:18:02;20.60;70.60
24326;DHT22;12448;45.532;5.290;2023-07-31T08:20:28;20.70;70.00
24326;DHT22;12448;45.532;5.290;2023-07-31T08:22:54;20.60;70.20
24326;DHT22;12448;45.532;5.290;2023-07-31T08:25:19;20.70;69.30
24326;DHT22;12448;45.532;5.290;2023-07-31T08:27:45;20.70;68.80
24326;DHT22;12448;45.532;5.290;2023-07-31T08:30:12;20.60;68.40
24326;DHT22;12448;45.532;5.290;2023-07-31T08:32:37;20.60;67.60
24326;DHT22;12448;45.532;5.290;2023-07-31T08:35:04;20.60;68.40
24326;DHT22;12448;45.532;5.290;2023-07-31T08:37:29;20.70;68.80
24326;DHT22;12448;45.532;5.290;2023-07-31T08:39:55;20.70;68.30
24326;DHT22;12448;45.532;5.290;2023-07-31T08:42:21;20.70;68.30
24326;DHT22;12448;45.532;5.290;2023-07-31T08:44:46;20.80;68.70
24326;DHT22;12448;45.532;5.290;2023-07-31T08:47:13;20.90;69.30
24326;DHT22;12448;45.532;5.290;2023-07-31T08:49:39;20.90;67.90
24326;DHT22;12448;45.532;5.290;2023-07-31T08:52:06;20.90;68.00
24326;DHT22;12448;45.532;5.290;2023-07-31T08:54:32;20.90;66.60
24326;DHT22;12448;45.532;5.290;2023-07-31T08:56:59;21.00;67.90
24326;DHT22;12448;45.532;5.290;2023-07-31T08:59:29;21.00;68.40
24326;DHT22;12448;45.532;5.290;2023-07-31T09:01:57;21.10;67.40
24326;DHT22;12448;45.532;5.290;2023-07-31T09:04:26;21.10;67.70
24326;DHT22;12448;45.532;5.290;2023-07-31T09:06:57;21.20;68.20
24326;DHT22;12448;45.532;5.290;2023-07-31T09:09:25;21.20;69.00
24326;DHT22;12448;45.532;5.290;2023-07-31T09:11:50;21.20;67.60
24326;DHT22;12448;45.532;5.290;2023-07-31T09:14:17;21.20;68.20
24326;DHT22;12448;45.532;5.290;2023-07-31T09:16:56;21.30;68.20
24326;DHT22;12448;45.532;5.290;2023-07-31T09:19:41;21.40;67.50
24326;DHT22;12448;45.532;5.290;2023-07-31T09:22:07;21.40;67.00
24326;DHT22;12448;45.532;5.290;2023-07-31T09:24:33;21.50;67.60
24326;DHT22;12448;45.532;5.290;2023-07-31T09:27:01;21.60;67.50
24326;DHT22;12448;45.532;5.290;2023-07-31T09:29:28;21.70;67.20
24326;DHT22;12448;45.532;5.290;2023-07-31T09:31:55;21.70;66.20
24326;DHT22;12448;45.532;5.290;2023-07-31T09:34:36;21.70;66.60
24326;DHT22;12448;45.532;5.290;2023-07-31T09:37:03;21.70;67.70
24326;DHT22;12448;45.532;5.290;2023-07-31T09:39:30;21.80;66.90
24326;DHT22;12448;45.532;5.290;2023-07-31T09:41:56;21.80;68.20
24326;DHT22;12448;45.532;5.290;2023-07-31T09:44:37;21.80;67.30
24326;DHT22;12448;45.532;5.290;2023-07-31T09:47:04;21.90;67.20
24326;DHT22;12448;45.532;5.290;2023-07-31T09:49:30;22.00;67.10
24326;DHT22;12448;45.532;5.290;2023-07-31T09:51:55;22.00;66.50
24326;DHT22;12448;45.532;5.290;2023-07-31T09:54:21;22.00;66.20
24326;DHT22;12448;45.532;5.290;2023-07-31T09:56:48;22.00;66.40
24326;DHT22;12448;45.532;5.290;2023-07-31T09:59:18;22.00;66.30
24326;DHT22;12448;45.532;5.290;2023-07-31T10:01:46;22.00;66.20
24326;DHT22;12448;45.532;5.290;2023-07-31T10:04:12;22.00;66.30
24326;DHT22;12448;45.532;5.290;2023-07-31T10:06:39;22.10;65.60
24326;DHT22;12448;45.532;5.290;2023-07-31T10:09:07;22.00;65.80
24326;DHT22;12448;45.532;5.290;2023-07-31T10:11:42;22.20;66.20
24326;DHT22;12448;45.532;5.290;2023-07-31T10:14:09;22.10;66.20
24326;DHT22;12448;45.532;5.290;2023-07-31T10:16:38;22.10;66.30
24326;DHT22;12448;45.532;5.290;2023-07-31T10:19:05;22.10;66.40
24326;DHT22;12448;45.532;5.290;2023-07-31T10:21:32;22.10;66.50
24326;DHT22;12448;45.532;5.290;2023-07-31T10:24:03;22.10;66.10
24326;DHT22;12448;45.532;5.290;2023-07-31T10:26:31;22.10;65.60
24326;DHT22;12448;45.532;5.290;2023-07-31T10:28:58;22.00;66.70
24326;DHT22;12448;45.532;5.290;2023-07-31T10:31:24;22.10;66.50
24326;DHT22;12448;45.532;5.290;2023-07-31T10:33:51;22.10;66.00
24326;DHT22;12448;45.532;5.290;2023-07-31T10:36:19;22.10;66.20
24326;DHT22;12448;45.532;5.290;2023-07-31T10:38:46;22.20;65.50
24326;DHT22;12448;45.532;5.290;2023-07-31T10:41:13;22.30;65.70
24326;DHT22;12448;45.532;5.290;2023-07-31T10:43:39;22.40;65.40
24326;DHT22;12448;45.532;5.290;2023-07-31T10:46:09;22.50;64.40
24326;DHT22;12448;45.532;5.290;2023-07-31T10:48:37;22.50;63.40
24326;DHT22;12448;45.532;5.290;2023-07-31T10:51:07;22.60;63.60
24326;DHT22;12448;45.532;5.290;2023-07-31T10:53:34;22.60;63.10
24326;DHT22;12448;45.532;5.290;2023-07-31T10:56:04;22.60;63.20
24326;DHT22;12448;45.532;5.290;2023-07-31T10:58:30;22.70;63.70
24326;DHT22;12448;45.532;5.290;2023-07-31T11:01:01;22.70;63.30
24326;DHT22;12448;45.532;5.290;2023-07-31T11:03:50;22.80;62.80
24326;DHT22;12448;45.532;5.290;2023-07-31T11:06:18;23.00;63.80
24326;DHT22;12448;45.532;5.290;2023-07-31T11:08:49;23.00;63.50
24326;DHT22;12448;45.532;5.290;2023-07-31T11:11:19;23.20;63.30
24326;DHT22;12448;45.532;5.290;2023-07-31T11:13:50;23.30;62.50
24326;DHT22;12448;45.532;5.290;2023-07-31T11:16:19;23.40;63.00
24326;DHT22;12448;45.532;5.290;2023-07-31T11:18:46;23.50;63.00
24326;DHT22;12448;45.532;5.290;2023-07-31T11:21:20;23.60;63.20
24326;DHT22;12448;45.532;5.290;2023-07-31T11:23:47;23.70;62.20
24326;DHT22;12448;45.532;5.290;2023-07-31T11:26:13;23.60;62.10
24326;DHT22;12448;45.532;5.290;2023-07-31T11:28:39;23.60;60.10
24326;DHT22;12448;45.532;5.290;2023-07-31T11:31:09;23.50;59.80
24326;DHT22;12448;45.532;5.290;2023-07-31T11:33:34;23.50;59.30
24326;DHT22;12448;45.532;5.290;2023-07-31T11:36:00;23.40;58.00
24326;DHT22;12448;45.532;5.290;2023-07-31T11:38:30;23.40;59.50
24326;DHT22;12448;45.532;5.290;2023-07-31T11:40:58;23.50;59.30
24326;DHT22;12448;45.532;5.290;2023-07-31T11:43:24;23.50;59.20
24326;DHT22;12448;45.532;5.290;2023-07-31T11:46:00;23.60;58.80
24326;DHT22;12448;45.532;5.290;2023-07-31T11:48:34;23.60;57.50
24326;DHT22;12448;45.532;5.290;2023-07-31T11:51:02;23.80;58.40
24326;DHT22;12448;45.532;5.290;2023-07-31T11:53:43;23.80;57.30
24326;DHT22;12448;45.532;5.290;2023-07-31T11:56:11;23.90;56.40
24326;DHT22;12448;45.532;5.290;2023-07-31T11:58:39;24.00;58.10
24326;DHT22;12448;45.532;5.290;2023-07-31T12:01:05;24.10;58.00
24326;DHT22;12448;45.532;5.290;2023-07-31T12:03:32;24.20;58.00
24326;DHT22;12448;45.532;5.290;2023-07-31T12:05:59;24.20;57.60
24326;DHT22;12448;45.532;5.290;2023-07-31T12:08:25;24.30;57.80
24326;DHT22;12448;45.532;5.290;2023-07-31T12:10:51;24.40;57.30
24326;DHT22;12448;45.532;5.290;2023-07-31T12:13:22;24.50;57.50
24326;DHT22;12448;45.532;5.290;2023-07-31T12:15:48;24.60;57.90
24326;DHT22;12448;45.532;5.290;2023-07-31T12:18:15;24.70;57.20
24326;DHT22;12448;45.532;5.290;2023-07-31T12:20:45;24.80;57.90
24326;DHT22;12448;45.532;5.290;2023-07-31T12:23:34;24.90;58.00
24326;DHT22;12448;45.532;5.290;2023-07-31T12:26:11;25.00;57.20
24326;DHT22;12448;45.532;5.290;2023-07-31T12:31:04;25.10;57.00
24326;DHT22;12448;45.532;5.290;2023-07-31T12:33:31;25.00;56.70
24326;DHT22;12448;45.532;5.290;2023-07-31T12:36:00;25.10;56.20
24326;DHT22;12448;45.532;5.290;2023-07-31T12:38:26;25.10;56.10
24326;DHT22;12448;45.532;5.290;2023-07-31T12:40:51;25.10;54.50
24326;DHT22;12448;45.532;5.290;2023-07-31T12:43:17;25.10;55.60
24326;DHT22;12448;45.532;5.290;2023-07-31T12:45:42;25.20;55.50
24326;DHT22;12448;45.532;5.290;2023-07-31T12:48:08;25.30;54.70
24326;DHT22;12448;45.532;5.290;2023-07-31T12:50:34;25.30;55.90
24326;DHT22;12448;45.532;5.290;2023-07-31T12:53:02;25.30;54.20
24326;DHT22;12448;45.532;5.290;2023-07-31T12:55:29;25.30;54.70
24326;DHT22;12448;45.532;5.290;2023-07-31T12:57:55;25.30;55.60
24326;DHT22;12448;45.532;5.290;2023-07-31T13:00:22;25.40;55.40
24326;DHT22;12448;45.532;5.290;2023-07-31T13:02:47;25.50;55.70
24326;DHT22;12448;45.532;5.290;2023-07-31T13:05:13;25.60;55.60
24326;DHT22;12448;45.532;5.290;2023-07-31T13:07:39;25.80;55.40
24326;DHT22;12448;45.532;5.290;2023-07-31T13:10:06;25.80;55.80
24326;DHT22;12448;45.532;5.290;2023-07-31T13:12:32;25.90;54.70
24326;DHT22;12448;45.532;5.290;2023-07-31T13:14:58;25.90;54.50
24326;DHT22;12448;45.532;5.290;2023-07-31T13:17:23;25.90;54.40
24326;DHT22;12448;45.532;5.290;2023-07-31T13:19:49;26.00;54.30
24326;DHT22;12448;45.532;5.290;2023-07-31T13:22:14;25.90;53.20
24326;DHT22;12448;45.532;5.290;2023-07-31T13:24:40;25.80;52.30
24326;DHT22;12448;45.532;5.290;2023-07-31T13:27:05;25.80;51.90
24326;DHT22;12448;45.532;5.290;2023-07-31T13:29:31;25.60;51.40
24326;DHT22;12448;45.532;5.290;2023-07-31T13:31:57;25.60;52.10
24326;DHT22;12448;45.532;5.290;2023-07-31T13:34:23;25.50;51.50
24326;DHT22;12448;45.532;5.290;2023-07-31T13:36:48;25.60;52.30
24326;DHT22;12448;45.532;5.290;2023-07-31T13:39:14;25.70;53.00
24326;DHT22;12448;45.532;5.290;2023-07-31T13:41:40;25.80;51.90
24326;DHT22;12448;45.532;5.290;2023-07-31T13:44:05;25.80;52.90
24326;DHT22;12448;45.532;5.290;2023-07-31T13:46:31;26.00;53.50
24326;DHT22;12448;45.532;5.290;2023-07-31T13:48:58;26.00;52.00
24326;DHT22;12448;45.532;5.290;2023-07-31T13:51:25;26.00;52.80
24326;DHT22;12448;45.532;5.290;2023-07-31T13:53:50;25.90;52.30
24326;DHT22;12448;45.532;5.290;2023-07-31T13:56:16;25.90;52.20
24326;DHT22;12448;45.532;5.290;2023-07-31T13:58:42;26.00;52.70
24326;DHT22;12448;45.532;5.290;2023-07-31T14:01:07;26.00;52.30
24326;DHT22;12448;45.532;5.290;2023-07-31T14:03:33;26.10;51.30
24326;DHT22;12448;45.532;5.290;2023-07-31T14:05:58;26.20;51.40
24326;DHT22;12448;45.532;5.290;2023-07-31T14:08:24;26.30;51.70
24326;DHT22;12448;45.532;5.290;2023-07-31T14:10:50;26.30;51.60
24326;DHT22;12448;45.532;5.290;2023-07-31T14:13:15;26.30;51.30
24326;DHT22;12448;45.532;5.290;2023-07-31T14:15:42;26.30;50.60
24326;DHT22;12448;45.532;5.290;2023-07-31T14:18:08;26.30;49.40
24326;DHT22;12448;45.532;5.290;2023-07-31T14:20:34;26.40;50.90
24326;DHT22;12448;45.532;5.290;2023-07-31T14:23:00;26.50;51.20
24326;DHT22;12448;45.532;5.290;2023-07-31T14:25:25;26.50;50.10
24326;DHT22;12448;45.532;5.290;2023-07-31T14:27:51;26.50;49.90
24326;DHT22;12448;45.532;5.290;2023-07-31T14:30:17;26.50;49.70
24326;DHT22;12448;45.532;5.290;2023-07-31T14:32:43;26.50;49.10
24326;DHT22;12448;45.532;5.290;2023-07-31T14:35:09;26.40;49.10
24326;DHT22;12448;45.532;5.290;2023-07-31T14:37:42;26.50;50.20
24326;DHT22;12448;45.532;5.290;2023-07-31T14:40:10;26.60;49.50
24326;DHT22;12448;45.532;5.290;2023-07-31T14:42:37;26.70;49.40
24326;DHT22;12448;45.532;5.290;2023-07-31T14:45:06;26.70;48.40
24326;DHT22;12448;45.532;5.290;2023-07-31T14:47:33;26.70;48.90
24326;DHT22;12448;45.532;5.290;2023-07-31T14:49:59;26.70;50.00
24326;DHT22;12448;45.532;5.290;2023-07-31T14:52:25;26.80;50.10
24326;DHT22;12448;45.532;5.290;2023-07-31T14:54:51;27.00;49.80
24326;DHT22;12448;45.532;5.290;2023-07-31T14:57:17;27.00;47.90
24326;DHT22;12448;45.532;5.290;2023-07-31T14:59:44;27.10;46.70
24326;DHT22;12448;45.532;5.290;2023-07-31T15:02:11;26.90;46.80
24326;DHT22;12448;45.532;5.290;2023-07-31T15:04:36;26.80;46.70
24326;DHT22;12448;45.532;5.290;2023-07-31T15:07:02;26.90;47.60
24326;DHT22;12448;45.532;5.290;2023-07-31T15:09:28;26.90;47.80
24326;DHT22;12448;45.532;5.290;2023-07-31T15:11:55;27.00;48.10
24326;DHT22;12448;45.532;5.290;2023-07-31T15:14:20;27.10;47.40
24326;DHT22;12448;45.532;5.290;2023-07-31T15:16:46;27.10;48.10
24326;DHT22;12448;45.532;5.290;2023-07-31T15:19:12;27.10;46.90
24326;DHT22;12448;45.532;5.290;2023-07-31T15:21:38;27.10;47.10
24326;DHT22;12448;45.532;5.290;2023-07-31T15:24:04;27.10;47.80
24326;DHT22;12448;45.532;5.290;2023-07-31T15:26:29;27.00;48.40
24326;DHT22;12448;45.532;5.290;2023-07-31T15:29:00;27.10;47.80
24326;DHT22;12448;45.532;5.290;2023-07-31T15:31:26;27.00;47.90
24326;DHT22;12448;45.532;5.290;2023-07-31T15:33:51;27.00;48.30
24326;DHT22;12448;45.532;5.290;2023-07-31T15:36:17;27.10;48.50
24326;DHT22;12448;45.532;5.290;2023-07-31T15:38:43;27.10;48.20
24326;DHT22;12448;45.532;5.290;2023-07-31T15:41:08;27.30;48.80
24326;DHT22;12448;45.532;5.290;2023-07-31T15:43:34;27.30;48.80
24326;DHT22;12448;45.532;5.290;2023-07-31T15:46:00;27.50;49.50
24326;DHT22;12448;45.532;5.290;2023-07-31T15:48:25;27.50;49.20
24326;DHT22;12448;45.532;5.290;2023-07-31T15:50:51;27.60;47.60
24326;DHT22;12448;45.532;5.290;2023-07-31T15:53:16;27.60;48.50
24326;DHT22;12448;45.532;5.290;2023-07-31T15:55:42;27.60;48.20
24326;DHT22;12448;45.532;5.290;2023-07-31T15:58:07;27.70;47.20
24326;DHT22;12448;45.532;5.290;2023-07-31T16:00:33;27.60;48.30
24326;DHT22;12448;45.532;5.290;2023-07-31T16:02:59;27.50;47.60
24326;DHT22;12448;45.532;5.290;2023-07-31T16:05:24;27.40;47.90
24326;DHT22;12448;45.532;5.290;2023-07-31T16:07:50;27.20;48.40
24326;DHT22;12448;45.532;5.290;2023-07-31T16:10:16;27.10;48.80